sensor_id;sensor_type;location;lat;lon;timestamp;P1;durP1;ratioP1;P2;durP2;ratioP2
6207;SDS011;3137;51.550;7.060;2023-08-08T00:02:08;4.93;;;4.67;;
6207;SDS011;3137;51.550;7.060;2023-08-08T00:04:34;4.27;;;3.80;;
6207;SDS011;3137;51.550;7.060;2023-08-08T00:07:01;4.40;;;4.30;;
6207;SDS011;3137;51.550;7.060;2023-08-08T00:09:27;4.33;;;4.07;;
6207;SDS011;3137;51.550;7.060;2023-08-08T00:11:53;18.47;;;4.23;;
6207;SDS011;3137;51.550;7.060;2023-08-08T00:14:20;3.73;;;3.70;;
6207;SDS011;3137;51.550;7.060;2023-08-08T00:16:46;4.17;;;4.07;;
6207;SDS011;3137;51.550;7.060;2023-08-08T00:19:13;6.07;;;5.57;;
6207;SDS011;3137;51.550;7.060;2023-08-08T00:21:39;5.57;;;4.90;;
6207;SDS011;3137;51.550;7.060;2023-08-08T00:24:06;5.70;;;5.20;;
6207;SDS011;3137;51.550;7.060;2023-08-08T00:26:32;5.00;;;4.53;;
6207;SDS011;3137;51.550;7.060;2023-08-08T00:28:59;6.20;;;5.47;;
6207;SDS011;3137;51.550;7.060;2023-08-08T00:31:25;4.97;;;4.77;;
6207;SDS011;3137;51.550;7.060;2023-08-08T00:33:52;5.50;;;5.30;;
6207;SDS011;3137;51.550;7.060;2023-08-08T00:36:18;5.27;;;4.23;;
6207;SDS011;3137;51.550;7.060;2023-08-08T00:38:45;4.83;;;4.70;;
6207;SDS011;3137;51.550;7.060;2023-08-08T00:41:11;5.30;;;5.00;;
6207;SDS011;3137;51.550;7.060;2023-08-08T00:43:37;5.13;;;5.03;;
6207;SDS011;3137;51.550;7.060;2023-08-08T00:46:04;4.77;;;4.33;;
6207;SDS011;3137;51.550;7.060;2023-08-08T00:48:30;5.83;;;5.43;;
6207;SDS011;3137;51.550;7.060;2023-08-08T00:50:58;5.80;;;5.17;;
6207;SDS011;3137;51.550;7.060;2023-08-08T00:53:25;8.70;;;4.67;;
6207;SDS011;3137;51.550;7.060;2023-08-08T00:55:54;10.90;;;5.23;;
6207;SDS011;3137;51.550;7.060;2023-08-08T00:58:21;9.90;;;6.17;;
6207;SDS011;3137;51.550;7.060;2023-08-08T01:00:47;5.77;;;4.93;;
6207;SDS011;3137;51.550;7.060;2023-08-08T01:03:14;5.13;;;5.03;;
6207;SDS011;3137;51.550;7.060;2023-08-08T01:05:47;7.53;;;5.27;;
6207;SDS011;3137;51.550;7.060;2023-08-08T01:08:19;5.47;;;5.17;;
6207;SDS011;3137;51.550;7.060;2023-08-08T01:10:50;5.33;;;5.13;;
6207;SDS011;3137;51.550;7.060;2023-08-08T01:13:20;5.10;;;4.77;;
6207;SDS011;3137;51.550;7.060;2023-08-08T01:15:49;5.57;;;5.37;;
6207;SDS011;3137;51.550;7.060;2023-08-08T01:18:16;5.10;;;4.70;;
6207;SDS011;3137;51.550;7.060;2023-08-08T01:20:44;4.50;;;4.40;;
6207;SDS011;3137;51.550;7.060;2023-08-08T01:26:00;5.20;;;4.70;;
6207;SDS011;3137;51.550;7.060;2023-08-08T01:28:27;4.27;;;4.00;;
6207;SDS011;3137;51.550;7.060;2023-08-08T01:30:54;5.37;;;4.97;;
6207;SDS011;3137;51.550;7.060;2023-08-08T01:33:20;4.90;;;4.60;;
6207;SDS011;3137;51.550;7.060;2023-08-08T01:35:50;4.50;;;4.40;;
6207;SDS011;3137;51.550;7.060;2023-08-08T01:38:26;3.50;;;3.50;;
6207;SDS011;3137;51.550;7.060;2023-08-08T01:40:58;7.13;;;4.40;;
6207;SDS011;3137;51.550;7.060;2023-08-08T01:43:26;5.10;;;4.60;;
6207;SDS011;3137;51.550;7.060;2023-08-08T01:45:52;3.80;;;3.60;;
6207;SDS011;3137;51.550;7.060;2023-08-08T01:48:20;5.60;;;4.90;;
6207;SDS011;3137;51.550;7.060;2023-08-08T01:50:47;4.53;;;4.20;;
6207;SDS011;3137;51.550;7.060;2023-08-08T01:53:14;4.77;;;4.00;;
6207;SDS011;3137;51.550;7.060;2023-08-08T01:55:42;11.40;;;4.17;;
6207;SDS011;3137;51.550;7.060;2023-08-08T01:58:08;4.20;;;4.00;;
6207;SDS011;3137;51.550;7.060;2023-08-08T02:00:35;4.33;;;4.10;;
6207;SDS011;3137;51.550;7.060;2023-08-08T02:03:03;4.57;;;4.27;;
6207;SDS011;3137;51.550;7.060;2023-08-08T02:05:30;10.60;;;4.10;;
6207;SDS011;3137;51.550;7.060;2023-08-08T02:07:56;4.40;;;4.20;;
6207;SDS011;3137;51.550;7.060;2023-08-08T02:10:23;5.10;;;4.80;;
6207;SDS011;3137;51.550;7.060;2023-08-08T02:12:50;6.20;;;4.60;;
6207;SDS011;3137;51.550;7.060;2023-08-08T02:15:16;5.37;;;5.13;;
6207;SDS011;3137;51.550;7.060;2023-08-08T02:17:43;4.80;;;4.00;;
6207;SDS011;3137;51.550;7.060;2023-08-08T02:20:10;3.40;;;3.40;;
6207;SDS011;3137;51.550;7.060;2023-08-08T02:22:38;4.77;;;4.47;;
6207;SDS011;3137;51.550;7.060;2023-08-08T02:25:04;7.50;;;3.80;;
6207;SDS011;3137;51.550;7.060;2023-08-08T02:27:31;4.97;;;4.30;;
6207;SDS011;3137;51.550;7.060;2023-08-08T02:29:57;3.43;;;3.43;;
6207;SDS011;3137;51.550;7.060;2023-08-08T02:32:24;3.50;;;3.30;;
6207;SDS011;3137;51.550;7.060;2023-08-08T02:34:53;3.73;;;3.63;;
6207;SDS011;3137;51.550;7.060;2023-08-08T02:37:19;8.40;;;4.20;;
6207;SDS011;3137;51.550;7.060;2023-08-08T02:39:46;5.57;;;4.23;;
6207;SDS011;3137;51.550;7.060;2023-08-08T02:42:14;5.33;;;5.03;;
6207;SDS011;3137;51.550;7.060;2023-08-08T02:44:41;7.00;;;4.63;;
6207;SDS011;3137;51.550;7.060;2023-08-08T02:47:08;5.67;;;4.60;;
6207;SDS011;3137;51.550;7.060;2023-08-08T02:49:35;9.53;;;5.17;;
6207;SDS011;3137;51.550;7.060;2023-08-08T02:52:01;9.37;;;5.07;;
6207;SDS011;3137;51.550;7.060;2023-08-08T02:54:31;4.67;;;4.27;;
6207;SDS011;3137;51.550;7.060;2023-08-08T02:56:58;5.33;;;5.13;;
6207;SDS011;3137;51.550;7.060;2023-08-08T02:59:24;4.67;;;4.50;;
6207;SDS011;3137;51.550;7.060;2023-08-08T03:01:51;11.03;;;4.50;;
6207;SDS011;3137;51.550;7.060;2023-08-08T03:04:18;5.20;;;5.00;;
6207;SDS011;3137;51.550;7.060;2023-08-08T03:06:45;5.07;;;4.77;;
6207;SDS011;3137;51.550;7.060;2023-08-08T03:09:11;5.37;;;4.27;;
6207;SDS011;3137;51.550;7.060;2023-08-08T03:11:38;8.43;;;4.60;;
6207;SDS011;3137;51.550;7.060;2023-08-08T03:14:09;4.87;;;4.50;;
6207;SDS011;3137;51.550;7.060;2023-08-08T03:16:36;5.77;;;5.23;;
6207;SDS011;3137;51.550;7.060;2023-08-08T03:19:06;10.00;;;4.70;;
6207;SDS011;3137;51.550;7.060;2023-08-08T03:21:32;13.03;;;5.17;;
6207;SDS011;3137;51.550;7.060;2023-08-08T03:23:58;4.70;;;4.50;;
6207;SDS011;3137;51.550;7.060;2023-08-08T03:26:25;4.87;;;4.67;;
6207;SDS011;3137;51.550;7.060;2023-08-08T03:28:52;5.20;;;4.87;;
6207;SDS011;3137;51.550;7.060;2023-08-08T03:31:25;5.37;;;5.17;;
6207;SDS011;3137;51.550;7.060;2023-08-08T03:33:53;6.43;;;6.00;;
6207;SDS011;3137;51.550;7.060;2023-08-08T03:36:21;7.60;;;5.57;;
6207;SDS011;3137;51.550;7.060;2023-08-08T03:38:47;5.70;;;5.17;;
6207;SDS011;3137;51.550;7.060;2023-08-08T03:41:14;5.00;;;4.73;;
6207;SDS011;3137;51.550;7.060;2023-08-08T03:43:40;5.93;;;5.73;;
6207;SDS011;3137;51.550;7.060;2023-08-08T03:46:07;6.87;;;6.23;;
6207;SDS011;3137;51.550;7.060;2023-08-08T03:48:33;6.83;;;6.13;;
6207;SDS011;3137;51.550;7.060;2023-08-08T03:51:00;6.20;;;5.60;;
6207;SDS011;3137;51.550;7.060;2023-08-08T03:53:26;5.77;;;5.53;;
6207;SDS011;3137;51.550;7.060;2023-08-08T03:55:53;5.53;;;5.10;;
6207;SDS011;3137;51.550;7.060;2023-08-08T03:58:19;7.30;;;5.97;;
6207;SDS011;3137;51.550;7.060;2023-08-08T04:00:46;9.27;;;5.93;;
6207;SDS011;3137;51.550;7.060;2023-08-08T04:03:13;7.60;;;5.47;;
6207;SDS011;3137;51.550;7.060;2023-08-08T04:05:44;9.73;;;5.90;;
6207;SDS011;3137;51.550;7.060;2023-08-08T04:08:14;6.33;;;5.63;;
6207;SDS011;3137;51.550;7.060;2023-08-08T04:10:41;5.50;;;5.40;;
6207;SDS011;3137;51.550;7.060;2023-08-08T04:13:08;7.23;;;5.70;;
6207;SDS011;3137;51.550;7.060;2023-08-08T04:15:35;6.30;;;5.90;;
6207;SDS011;3137;51.550;7.060;2023-08-08T04:18:02;6.03;;;5.43;;
6207;SDS011;3137;51.550;7.060;2023-08-08T04:20:28;6.00;;;5.60;;
6207;SDS011;3137;51.550;7.060;2023-08-08T04:22:55;14.57;;;6.43;;
6207;SDS011;3137;51.550;7.060;2023-08-08T04:25:21;11.23;;;5.93;;
6207;SDS011;3137;51.550;7.060;2023-08-08T04:27:48;8.10;;;5.30;;
6207;SDS011;3137;51.550;7.060;2023-08-08T04:30:14;8.53;;;5.63;;
6207;SDS011;3137;51.550;7.060;2023-08-08T04:32:40;7.10;;;5.70;;
6207;SDS011;3137;51.550;7.060;2023-08-08T04:35:07;6.13;;;5.53;;
6207;SDS011;3137;51.550;7.060;2023-08-08T04:37:33;9.23;;;5.97;;
6207;SDS011;3137;51.550;7.060;2023-08-08T04:40:00;8.37;;;7.00;;
6207;SDS011;3137;51.550;7.060;2023-08-08T04:42:26;8.40;;;7.13;;
6207;SDS011;3137;51.550;7.060;2023-08-08T04:44:53;8.23;;;7.53;;
6207;SDS011;3137;51.550;7.060;2023-08-08T04:47:19;17.30;;;7.10;;
6207;SDS011;3137;51.550;7.060;2023-08-08T04:49:46;10.13;;;8.20;;
6207;SDS011;3137;51.550;7.060;2023-08-08T04:52:12;10.00;;;7.97;;
6207;SDS011;3137;51.550;7.060;2023-08-08T04:54:38;7.70;;;7.07;;
6207;SDS011;3137;51.550;7.060;2023-08-08T04:57:05;7.97;;;7.47;;
6207;SDS011;3137;51.550;7.060;2023-08-08T04:59:32;7.53;;;6.93;;
6207;SDS011;3137;51.550;7.060;2023-08-08T05:01:58;7.73;;;7.33;;
6207;SDS011;3137;51.550;7.060;2023-08-08T05:04:25;12.40;;;8.30;;
6207;SDS011;3137;51.550;7.060;2023-08-08T05:06:51;22.97;;;8.30;;
6207;SDS011;3137;51.550;7.060;2023-08-08T05:09:18;11.10;;;10.00;;
6207;SDS011;3137;51.550;7.060;2023-08-08T05:11:46;16.53;;;9.67;;
6207;SDS011;3137;51.550;7.060;2023-08-08T05:14:13;15.63;;;12.33;;
6207;SDS011;3137;51.550;7.060;2023-08-08T05:16:39;17.73;;;9.67;;
6207;SDS011;3137;51.550;7.060;2023-08-08T05:19:06;12.60;;;9.97;;
6207;SDS011;3137;51.550;7.060;2023-08-08T05:21:33;15.63;;;8.93;;
6207;SDS011;3137;51.550;7.060;2023-08-08T05:24:00;16.83;;;8.90;;
6207;SDS011;3137;51.550;7.060;2023-08-08T05:26:26;20.13;;;10.20;;
6207;SDS011;3137;51.550;7.060;2023-08-08T05:28:53;9.93;;;8.90;;
6207;SDS011;3137;51.550;7.060;2023-08-08T05:31:19;11.70;;;10.43;;
6207;SDS011;3137;51.550;7.060;2023-08-08T05:33:47;16.60;;;9.37;;
6207;SDS011;3137;51.550;7.060;2023-08-08T05:36:14;16.17;;;11.43;;
6207;SDS011;3137;51.550;7.060;2023-08-08T05:38:41;16.60;;;11.60;;
6207;SDS011;3137;51.550;7.060;2023-08-08T05:41:07;25.17;;;11.67;;
6207;SDS011;3137;51.550;7.060;2023-08-08T05:43:34;12.90;;;11.57;;
6207;SDS011;3137;51.550;7.060;2023-08-08T05:46:01;14.57;;;12.53;;
6207;SDS011;3137;51.550;7.060;2023-08-08T05:48:28;24.50;;;15.50;;
6207;SDS011;3137;51.550;7.060;2023-08-08T05:50:54;37.50;;;14.30;;
6207;SDS011;3137;51.550;7.060;2023-08-08T05:53:24;21.80;;;14.07;;
6207;SDS011;3137;51.550;7.060;2023-08-08T05:55:51;24.17;;;14.50;;
6207;SDS011;3137;51.550;7.060;2023-08-08T05:58:17;12.83;;;11.53;;
6207;SDS011;3137;51.550;7.060;2023-08-08T06:00:44;17.40;;;13.70;;
6207;SDS011;3137;51.550;7.060;2023-08-08T06:03:10;17.13;;;13.33;;
6207;SDS011;3137;51.550;7.060;2023-08-08T06:05:37;15.97;;;13.30;;
6207;SDS011;3137;51.550;7.060;2023-08-08T06:08:04;23.07;;;13.43;;
6207;SDS011;3137;51.550;7.060;2023-08-08T06:10:33;21.53;;;13.50;;
6207;SDS011;3137;51.550;7.060;2023-08-08T06:13:00;22.67;;;14.47;;
6207;SDS011;3137;51.550;7.060;2023-08-08T06:15:27;36.60;;;14.87;;
6207;SDS011;3137;51.550;7.060;2023-08-08T06:17:53;23.50;;;14.73;;
6207;SDS011;3137;51.550;7.060;2023-08-08T06:20:20;25.97;;;16.17;;
6207;SDS011;3137;51.550;7.060;2023-08-08T06:22:48;28.90;;;17.07;;
6207;SDS011;3137;51.550;7.060;2023-08-08T06:25:15;27.50;;;18.20;;
6207;SDS011;3137;51.550;7.060;2023-08-08T06:27:42;25.97;;;17.43;;
6207;SDS011;3137;51.550;7.060;2023-08-08T06:30:08;28.10;;;16.37;;
6207;SDS011;3137;51.550;7.060;2023-08-08T06:32:35;33.27;;;16.93;;
6207;SDS011;3137;51.550;7.060;2023-08-08T06:35:01;30.20;;;18.13;;
6207;SDS011;3137;51.550;7.060;2023-08-08T06:37:28;28.00;;;17.33;;
6207;SDS011;3137;51.550;7.060;2023-08-08T06:39:54;38.47;;;17.40;;
6207;SDS011;3137;51.550;7.060;2023-08-08T06:42:21;24.83;;;15.77;;
6207;SDS011;3137;51.550;7.060;2023-08-08T06:44:55;39.43;;;18.13;;
6207;SDS011;3137;51.550;7.060;2023-08-08T06:47:22;30.67;;;16.47;;
6207;SDS011;3137;51.550;7.060;2023-08-08T06:49:49;21.50;;;15.27;;
6207;SDS011;3137;51.550;7.060;2023-08-08T06:52:15;21.83;;;16.93;;
6207;SDS011;3137;51.550;7.060;2023-08-08T06:54:42;23.50;;;16.03;;
6207;SDS011;3137;51.550;7.060;2023-08-08T06:57:08;20.97;;;16.97;;
6207;SDS011;3137;51.550;7.060;2023-08-08T06:59:34;21.47;;;16.90;;
6207;SDS011;3137;51.550;7.060;2023-08-08T07:02:01;25.00;;;16.60;;
6207;SDS011;3137;51.550;7.060;2023-08-08T07:04:27;19.33;;;17.00;;
6207;SDS011;3137;51.550;7.060;2023-08-08T07:06:54;26.93;;;15.93;;
6207;SDS011;3137;51.550;7.060;2023-08-08T07:09:20;20.53;;;16.13;;
6207;SDS011;3137;51.550;7.060;2023-08-08T07:11:48;26.70;;;16.77;;
6207;SDS011;3137;51.550;7.060;2023-08-08T07:14:14;26.20;;;14.97;;
6207;SDS011;3137;51.550;7.060;2023-08-08T07:16:41;21.77;;;15.03;;
6207;SDS011;3137;51.550;7.060;2023-08-08T07:19:07;25.83;;;15.60;;
6207;SDS011;3137;51.550;7.060;2023-08-08T07:21:33;27.03;;;17.47;;
6207;SDS011;3137;51.550;7.060;2023-08-08T07:24:00;25.73;;;17.07;;
6207;SDS011;3137;51.550;7.060;2023-08-08T07:26:26;26.10;;;15.00;;
6207;SDS011;3137;51.550;7.060;2023-08-08T07:28:53;23.97;;;14.30;;
6207;SDS011;3137;51.550;7.060;2023-08-08T07:31:19;26.53;;;15.43;;
6207;SDS011;3137;51.550;7.060;2023-08-08T07:33:46;25.17;;;16.33;;
6207;SDS011;3137;51.550;7.060;2023-08-08T07:36:13;18.37;;;14.97;;
6207;SDS011;3137;51.550;7.060;2023-08-08T07:38:39;23.10;;;14.47;;
6207;SDS011;3137;51.550;7.060;2023-08-08T07:41:05;14.47;;;12.83;;
6207;SDS011;3137;51.550;7.060;2023-08-08T07:43:32;23.37;;;13.20;;
6207;SDS011;3137;51.550;7.060;2023-08-08T07:45:59;25.67;;;14.17;;
6207;SDS011;3137;51.550;7.060;2023-08-08T07:48:26;20.93;;;12.93;;
6207;SDS011;3137;51.550;7.060;2023-08-08T07:50:52;19.07;;;13.37;;
6207;SDS011;3137;51.550;7.060;2023-08-08T07:53:19;13.47;;;12.23;;
6207;SDS011;3137;51.550;7.060;2023-08-08T07:55:45;17.50;;;10.87;;
6207;SDS011;3137;51.550;7.060;2023-08-08T07:58:12;15.87;;;11.27;;
6207;SDS011;3137;51.550;7.060;2023-08-08T08:00:38;11.80;;;10.67;;
6207;SDS011;3137;51.550;7.060;2023-08-08T08:03:05;18.00;;;11.07;;
6207;SDS011;3137;51.550;7.060;2023-08-08T08:05:32;11.13;;;9.90;;
6207;SDS011;3137;51.550;7.060;2023-08-08T08:08:00;13.10;;;9.03;;
6207;SDS011;3137;51.550;7.060;2023-08-08T08:10:27;20.50;;;8.50;;
6207;SDS011;3137;51.550;7.060;2023-08-08T08:12:53;12.87;;;8.07;;
6207;SDS011;3137;51.550;7.060;2023-08-08T08:15:25;10.67;;;7.87;;
6207;SDS011;3137;51.550;7.060;2023-08-08T08:17:52;9.17;;;8.37;;
6207;SDS011;3137;51.550;7.060;2023-08-08T08:20:19;10.43;;;8.37;;
6207;SDS011;3137;51.550;7.060;2023-08-08T08:22:45;8.87;;;8.07;;
6207;SDS011;3137;51.550;7.060;2023-08-08T08:25:12;14.40;;;7.97;;
6207;SDS011;3137;51.550;7.060;2023-08-08T08:27:40;9.37;;;7.90;;
6207;SDS011;3137;51.550;7.060;2023-08-08T08:30:06;7.87;;;7.23;;
6207;SDS011;3137;51.550;7.060;2023-08-08T08:32:36;11.90;;;6.77;;
6207;SDS011;3137;51.550;7.060;2023-08-08T08:35:03;9.00;;;7.20;;
6207;SDS011;3137;51.550;7.060;2023-08-08T08:37:30;6.47;;;5.83;;
6207;SDS011;3137;51.550;7.060;2023-08-08T08:39:56;10.67;;;5.90;;
6207;SDS011;3137;51.550;7.060;2023-08-08T08:42:23;9.43;;;6.17;;
6207;SDS011;3137;51.550;7.060;2023-08-08T08:44:50;7.03;;;6.33;;
6207;SDS011;3137;51.550;7.060;2023-08-08T08:47:19;11.10;;;6.80;;
6207;SDS011;3137;51.550;7.060;2023-08-08T08:49:47;9.93;;;6.00;;
6207;SDS011;3137;51.550;7.060;2023-08-08T08:52:13;5.07;;;4.77;;
6207;SDS011;3137;51.550;7.060;2023-08-08T08:54:40;7.93;;;4.57;;
6207;SDS011;3137;51.550;7.060;2023-08-08T08:57:07;4.67;;;4.23;;
6207;SDS011;3137;51.550;7.060;2023-08-08T08:59:34;5.00;;;4.70;;
6207;SDS011;3137;51.550;7.060;2023-08-08T09:02:01;14.67;;;5.60;;
6207;SDS011;3137;51.550;7.060;2023-08-08T09:04:28;5.70;;;5.30;;
6207;SDS011;3137;51.550;7.060;2023-08-08T09:06:56;9.80;;;4.20;;
6207;SDS011;3137;51.550;7.060;2023-08-08T09:09:23;5.40;;;4.10;;
6207;SDS011;3137;51.550;7.060;2023-08-08T09:11:50;5.03;;;4.10;;
6207;SDS011;3137;51.550;7.060;2023-08-08T09:14:22;7.23;;;5.43;;
6207;SDS011;3137;51.550;7.060;2023-08-08T09:16:51;4.93;;;4.70;;
6207;SDS011;3137;51.550;7.060;2023-08-08T09:19:23;6.30;;;4.40;;
6207;SDS011;3137;51.550;7.060;2023-08-08T09:21:51;8.93;;;3.77;;
6207;SDS011;3137;51.550;7.060;2023-08-08T09:24:18;6.43;;;3.50;;
6207;SDS011;3137;51.550;7.060;2023-08-08T09:26:45;4.13;;;3.93;;
6207;SDS011;3137;51.550;7.060;2023-08-08T09:29:12;3.87;;;3.63;;
6207;SDS011;3137;51.550;7.060;2023-08-08T09:31:40;4.57;;;4.20;;
6207;SDS011;3137;51.550;7.060;2023-08-08T09:34:07;8.23;;;5.30;;
6207;SDS011;3137;51.550;7.060;2023-08-08T09:36:33;7.83;;;4.63;;
6207;SDS011;3137;51.550;7.060;2023-08-08T09:39:01;9.77;;;3.87;;
6207;SDS011;3137;51.550;7.060;2023-08-08T09:41:28;4.77;;;4.43;;
6207;SDS011;3137;51.550;7.060;2023-08-08T09:43:54;5.57;;;4.97;;
6207;SDS011;3137;51.550;7.060;2023-08-08T09:46:21;3.90;;;3.57;;
6207;SDS011;3137;51.550;7.060;2023-08-08T09:48:49;5.47;;;4.70;;
6207;SDS011;3137;51.550;7.060;2023-08-08T09:51:16;7.23;;;4.40;;
6207;SDS011;3137;51.550;7.060;2023-08-08T09:53:43;4.97;;;4.43;;
6207;SDS011;3137;51.550;7.060;2023-08-08T09:56:12;5.90;;;4.53;;
6207;SDS011;3137;51.550;7.060;2023-08-08T09:58:41;5.17;;;4.97;;
6207;SDS011;3137;51.550;7.060;2023-08-08T10:01:09;4.93;;;4.67;;
6207;SDS011;3137;51.550;7.060;2023-08-08T10:03:39;17.20;;;4.67;;
6207;SDS011;3137;51.550;7.060;2023-08-08T10:06:09;4.93;;;4.83;;
6207;SDS011;3137;51.550;7.060;2023-08-08T10:08:36;4.93;;;4.63;;
6207;SDS011;3137;51.550;7.060;2023-08-08T10:11:02;5.93;;;5.37;;
6207;SDS011;3137;51.550;7.060;2023-08-08T10:13:33;5.33;;;4.90;;
6207;SDS011;3137;51.550;7.060;2023-08-08T10:16:04;4.93;;;4.73;;
6207;SDS011;3137;51.550;7.060;2023-08-08T10:18:34;7.73;;;4.83;;
6207;SDS011;3137;51.550;7.060;2023-08-08T10:21:03;8.50;;;5.60;;
6207;SDS011;3137;51.550;7.060;2023-08-08T10:23:35;6.80;;;6.20;;
6207;SDS011;3137;51.550;7.060;2023-08-08T10:26:03;6.07;;;5.60;;
6207;SDS011;3137;51.550;7.060;2023-08-08T10:28:31;6.30;;;5.77;;
6207;SDS011;3137;51.550;7.060;2023-08-08T10:31:01;9.23;;;5.90;;
6207;SDS011;3137;51.550;7.060;2023-08-08T10:33:39;6.40;;;6.03;;
6207;SDS011;3137;51.550;7.060;2023-08-08T10:36:07;5.40;;;5.20;;
6207;SDS011;3137;51.550;7.060;2023-08-08T10:41:14;6.40;;;5.43;;
6207;SDS011;3137;51.550;7.060;2023-08-08T10:46:27;5.70;;;5.30;;
6207;SDS011;3137;51.550;7.060;2023-08-08T10:48:59;5.30;;;5.03;;
6207;SDS011;3137;51.550;7.060;2023-08-08T10:51:44;5.57;;;5.30;;
6207;SDS011;3137;51.550;7.060;2023-08-08T10:54:14;7.60;;;5.30;;
6207;SDS011;3137;51.550;7.060;2023-08-08T10:56:51;5.77;;;5.67;;
6207;SDS011;3137;51.550;7.060;2023-08-08T10:59:21;5.93;;;5.53;;
6207;SDS011;3137;51.550;7.060;2023-08-08T11:01:52;5.47;;;4.93;;
6207;SDS011;3137;51.550;7.060;2023-08-08T11:04:19;5.87;;;5.63;;
6207;SDS011;3137;51.550;7.060;2023-08-08T11:06:49;9.30;;;5.73;;
6207;SDS011;3137;51.550;7.060;2023-08-08T11:09:16;5.90;;;5.50;;
6207;SDS011;3137;51.550;7.060;2023-08-08T11:11:44;6.13;;;5.73;;
6207;SDS011;3137;51.550;7.060;2023-08-08T11:14:14;6.30;;;5.83;;
6207;SDS011;3137;51.550;7.060;2023-08-08T11:16:43;6.77;;;6.03;;
6207;SDS011;3137;51.550;7.060;2023-08-08T11:19:11;7.87;;;7.03;;
6207;SDS011;3137;51.550;7.060;2023-08-08T11:21:42;7.57;;;7.07;;
6207;SDS011;3137;51.550;7.060;2023-08-08T11:24:09;5.33;;;4.97;;
6207;SDS011;3137;51.550;7.060;2023-08-08T11:26:37;11.33;;;4.97;;
6207;SDS011;3137;51.550;7.060;2023-08-08T11:29:05;4.10;;;3.90;;
6207;SDS011;3137;51.550;7.060;2023-08-08T11:31:36;4.97;;;4.33;;
6207;SDS011;3137;51.550;7.060;2023-08-08T11:34:04;8.90;;;3.90;;
6207;SDS011;3137;51.550;7.060;2023-08-08T11:36:34;5.50;;;4.30;;
6207;SDS011;3137;51.550;7.060;2023-08-08T11:39:02;4.60;;;4.40;;
6207;SDS011;3137;51.550;7.060;2023-08-08T11:41:36;4.70;;;4.33;;
6207;SDS011;3137;51.550;7.060;2023-08-08T11:44:04;4.50;;;4.40;;
6207;SDS011;3137;51.550;7.060;2023-08-08T11:46:31;8.33;;;4.67;;
6207;SDS011;3137;51.550;7.060;2023-08-08T11:49:05;9.10;;;5.37;;
6207;SDS011;3137;51.550;7.060;2023-08-08T11:51:33;5.20;;;4.80;;
6207;SDS011;3137;51.550;7.060;2023-08-08T11:54:01;4.00;;;3.90;;
6207;SDS011;3137;51.550;7.060;2023-08-08T11:56:32;5.23;;;5.03;;
6207;SDS011;3137;51.550;7.060;2023-08-08T11:58:59;3.57;;;3.57;;
6207;SDS011;3137;51.550;7.060;2023-08-08T12:01:26;15.17;;;4.77;;
6207;SDS011;3137;51.550;7.060;2023-08-08T12:03:53;4.63;;;4.47;;
6207;SDS011;3137;51.550;7.060;2023-08-08T12:06:20;4.83;;;4.33;;
6207;SDS011;3137;51.550;7.060;2023-08-08T12:08:48;4.97;;;4.67;;
6207;SDS011;3137;51.550;7.060;2023-08-08T12:11:15;4.57;;;4.40;;
6207;SDS011;3137;51.550;7.060;2023-08-08T12:13:42;4.37;;;4.13;;
6207;SDS011;3137;51.550;7.060;2023-08-08T12:16:11;4.30;;;4.20;;
6207;SDS011;3137;51.550;7.060;2023-08-08T12:18:43;5.03;;;4.83;;
6207;SDS011;3137;51.550;7.060;2023-08-08T12:21:10;14.43;;;4.27;;
6207;SDS011;3137;51.550;7.060;2023-08-08T12:23:36;4.47;;;3.83;;
6207;SDS011;3137;51.550;7.060;2023-08-08T12:26:04;5.57;;;4.87;;
6207;SDS011;3137;51.550;7.060;2023-08-08T12:28:31;11.67;;;4.50;;
6207;SDS011;3137;51.550;7.060;2023-08-08T12:30:59;4.83;;;4.43;;
6207;SDS011;3137;51.550;7.060;2023-08-08T12:33:25;3.97;;;3.87;;
6207;SDS011;3137;51.550;7.060;2023-08-08T12:35:52;5.00;;;4.57;;
6207;SDS011;3137;51.550;7.060;2023-08-08T12:38:19;4.33;;;4.03;;
6207;SDS011;3137;51.550;7.060;2023-08-08T12:40:45;4.77;;;4.57;;
6207;SDS011;3137;51.550;7.060;2023-08-08T12:43:12;4.80;;;4.40;;
6207;SDS011;3137;51.550;7.060;2023-08-08T12:45:40;3.63;;;3.63;;
6207;SDS011;3137;51.550;7.060;2023-08-08T12:48:06;4.17;;;4.07;;
6207;SDS011;3137;51.550;7.060;2023-08-08T12:50:33;4.27;;;4.07;;
6207;SDS011;3137;51.550;7.060;2023-08-08T12:52:59;4.83;;;4.53;;
6207;SDS011;3137;51.550;7.060;2023-08-08T12:55:26;4.67;;;4.57;;
6207;SDS011;3137;51.550;7.060;2023-08-08T12:57:52;7.13;;;4.97;;
6207;SDS011;3137;51.550;7.060;2023-08-08T13:00:18;6.50;;;6.20;;
6207;SDS011;3137;51.550;7.060;2023-08-08T13:02:45;5.50;;;5.20;;
6207;SDS011;3137;51.550;7.060;2023-08-08T13:05:11;5.07;;;4.43;;
6207;SDS011;3137;51.550;7.060;2023-08-08T13:07:38;7.60;;;4.37;;
6207;SDS011;3137;51.550;7.060;2023-08-08T13:10:04;5.80;;;4.73;;
6207;SDS011;3137;51.550;7.060;2023-08-08T13:12:31;4.97;;;4.77;;
6207;SDS011;3137;51.550;7.060;2023-08-08T13:14:58;5.93;;;4.80;;
6207;SDS011;3137;51.550;7.060;2023-08-08T13:17:24;4.43;;;4.33;;
6207;SDS011;3137;51.550;7.060;2023-08-08T13:19:51;5.50;;;5.20;;
6207;SDS011;3137;51.550;7.060;2023-08-08T13:22:17;5.40;;;4.90;;
6207;SDS011;3137;51.550;7.060;2023-08-08T13:24:44;7.43;;;5.30;;
6207;SDS011;3137;51.550;7.060;2023-08-08T13:27:10;13.33;;;5.63;;
6207;SDS011;3137;51.550;7.060;2023-08-08T13:29:37;5.57;;;4.93;;
6207;SDS011;3137;51.550;7.060;2023-08-08T13:32:03;5.10;;;4.67;;
6207;SDS011;3137;51.550;7.060;2023-08-08T13:34:30;5.90;;;4.57;;
6207;SDS011;3137;51.550;7.060;2023-08-08T13:36:56;5.77;;;5.17;;
6207;SDS011;3137;51.550;7.060;2023-08-08T13:39:23;5.30;;;4.87;;
6207;SDS011;3137;51.550;7.060;2023-08-08T13:41:49;5.20;;;4.90;;
6207;SDS011;3137;51.550;7.060;2023-08-08T13:44:16;5.10;;;4.83;;
6207;SDS011;3137;51.550;7.060;2023-08-08T13:46:42;4.90;;;4.90;;
6207;SDS011;3137;51.550;7.060;2023-08-08T13:49:09;4.53;;;4.33;;
6207;SDS011;3137;51.550;7.060;2023-08-08T13:51:35;4.83;;;4.80;;
6207;SDS011;3137;51.550;7.060;2023-08-08T13:54:02;5.17;;;4.93;;
6207;SDS011;3137;51.550;7.060;2023-08-08T13:56:28;5.40;;;4.60;;
6207;SDS011;3137;51.550;7.060;2023-08-08T13:58:55;5.27;;;4.60;;
6207;SDS011;3137;51.550;7.060;2023-08-08T14:01:21;4.77;;;4.67;;
6207;SDS011;3137;51.550;7.060;2023-08-08T14:03:48;5.17;;;5.07;;
6207;SDS011;3137;51.550;7.060;2023-08-08T14:06:15;5.23;;;4.90;;
6207;SDS011;3137;51.550;7.060;2023-08-08T14:08:41;5.23;;;4.87;;
6207;SDS011;3137;51.550;7.060;2023-08-08T14:11:07;8.73;;;4.37;;
6207;SDS011;3137;51.550;7.060;2023-08-08T14:13:34;3.13;;;3.10;;
6207;SDS011;3137;51.550;7.060;2023-08-08T14:16:01;3.27;;;3.13;;
6207;SDS011;3137;51.550;7.060;2023-08-08T14:18:28;3.43;;;3.33;;
6207;SDS011;3137;51.550;7.060;2023-08-08T14:20:54;3.40;;;3.40;;
6207;SDS011;3137;51.550;7.060;2023-08-08T14:23:20;3.77;;;3.77;;
6207;SDS011;3137;51.550;7.060;2023-08-08T14:25:47;4.60;;;4.20;;
6207;SDS011;3137;51.550;7.060;2023-08-08T14:28:14;4.37;;;4.13;;
6207;SDS011;3137;51.550;7.060;2023-08-08T14:30:40;4.23;;;4.13;;
6207;SDS011;3137;51.550;7.060;2023-08-08T14:33:07;6.67;;;4.13;;
6207;SDS011;3137;51.550;7.060;2023-08-08T14:35:34;4.30;;;4.30;;
6207;SDS011;3137;51.550;7.060;2023-08-08T14:38:00;5.50;;;3.97;;
6207;SDS011;3137;51.550;7.060;2023-08-08T14:40:27;4.20;;;3.63;;
6207;SDS011;3137;51.550;7.060;2023-08-08T14:42:53;3.17;;;2.97;;
6207;SDS011;3137;51.550;7.060;2023-08-08T14:45:22;3.37;;;3.27;;
6207;SDS011;3137;51.550;7.060;2023-08-08T14:47:49;3.63;;;3.63;;
6207;SDS011;3137;51.550;7.060;2023-08-08T14:50:16;2.40;;;2.40;;
6207;SDS011;3137;51.550;7.060;2023-08-08T14:52:43;3.43;;;2.97;;
6207;SDS011;3137;51.550;7.060;2023-08-08T14:55:09;3.60;;;2.27;;
6207;SDS011;3137;51.550;7.060;2023-08-08T14:57:36;3.13;;;2.83;;
6207;SDS011;3137;51.550;7.060;2023-08-08T15:00:02;2.23;;;2.23;;
6207;SDS011;3137;51.550;7.060;2023-08-08T15:02:30;2.13;;;1.90;;
6207;SDS011;3137;51.550;7.060;2023-08-08T15:04:56;2.57;;;2.40;;
6207;SDS011;3137;51.550;7.060;2023-08-08T15:07:23;2.30;;;2.20;;
6207;SDS011;3137;51.550;7.060;2023-08-08T15:09:49;14.23;;;1.80;;
6207;SDS011;3137;51.550;7.060;2023-08-08T15:12:16;1.97;;;1.90;;
6207;SDS011;3137;51.550;7.060;2023-08-08T15:14:43;2.50;;;2.50;;
6207;SDS011;3137;51.550;7.060;2023-08-08T15:17:09;2.30;;;2.10;;
6207;SDS011;3137;51.550;7.060;2023-08-08T15:19:36;2.57;;;2.47;;